Time;durP1;ratioP1;P1;durP2;ratioP2;P2;SDS_P1;SDS_P2;PMS_P1;PMS_P2;Temp;Humidity;BMP_temperature;BMP_pressure;BME280_temperature;BME280_humidity;BME280_pressure;Samples;Min_cycle;Max_cycle;Signal;HPM_P1;HPM_P2
2021/12/11 00:00:24;;;;;;;;;;;;;;;6.03;100.00;98372.78;5075538;28;19924;-84
2021/12/11 00:02:57;;;;;;;;;;;;;;;6.22;100.00;98366.63;5093160;28;20398;-84
2021/12/11 00:05:25;;;;;;;;;;;;;;;6.01;100.00;98367.63;5092528;28;19967;-84
2021/12/11 00:07:52;;;;;;;;;;;;;;;6.01;100.00;98369.59;5093194;28;20396;-84
2021/12/11 00:10:25;;;;;;;;;;;;;;;6.11;100.00;98379.81;5095444;28;19931;-84
2021/12/11 00:12:57;;;;;;;;;;;;;;;6.14;100.00;98365.13;5062303;28;19946;-84
2021/12/11 00:15:28;;;;;;;;;;;;;;;6.49;100.00;98381.41;5095771;28;19969;-84
2021/12/11 00:18:00;;;;;;;;;;;;;;;6.13;100.00;98382.97;5095459;28;19928;-82
2021/12/11 00:20:31;;;;;;;;;;;;;;;6.16;100.00;98398.78;5078532;28;19924;-84
2021/12/11 00:23:01;;;;;;;;;;;;;;;6.22;100.00;98391.59;5079177;28;19924;-83
2021/12/11 00:25:28;;;;;;;;;;;;;;;6.11;100.00;98402.00;5078465;28;20374;-84
2021/12/11 00:28:04;;;;;;;;;;;;;;;6.17;100.00;98405.91;5112150;28;20321;-84
2021/12/11 00:30:36;;;;;;;;;;;;;;;6.05;100.00;98398.88;5078940;28;19928;-84
2021/12/11 00:33:06;;;;;;;;;;;;;;;6.19;100.00;98397.97;5096124;28;19970;-84
2021/12/11 00:35:34;;;;;;;;;;;;;;;6.43;100.00;98408.03;5078679;28;19924;-84
2021/12/11 00:38:08;;;;;;;;;;;;;;;6.47;100.00;98408.78;5096479;28;20400;-84
2021/12/11 00:40:36;;;;;;;;;;;;;;;6.32;100.00;98424.00;5112197;28;20014;-84
2021/12/11 00:43:04;;;;;;;;;;;;;;;6.47;100.00;98425.44;5096341;28;19924;-84
2021/12/11 00:45:33;;;;;;;;;;;;;;;6.03;100.00;98406.06;5096392;28;19925;-84
2021/12/11 00:48:12;;;;;;;;;;;;;;;5.91;100.00;98423.19;5077879;28;20019;-84
2021/12/11 00:50:44;;;;;;;;;;;;;;;6.45;100.00;98427.84;5095312;28;19930;-84
2021/12/11 00:53:27;;;;;;;;;;;;;;;6.70;100.00;98423.63;5094955;28;20508;-84
2021/12/11 00:56:00;;;;;;;;;;;;;;;6.19;100.00;98426.50;5094944;28;19924;-84
2021/12/11 00:58:29;;;;;;;;;;;;;;;6.69;100.00;98421.25;5077997;28;19931;-84
2021/12/11 01:00:59;;;;;;;;;;;;;;;6.26;100.00;98414.53;5093281;28;20407;-84
2021/12/11 01:03:45;;;;;;;;;;;;;;;6.35;100.00;98426.75;5094907;28;20447;-85
2021/12/11 01:06:15;;;;;;;;;;;;;;;6.09;100.00;98434.91;5094739;28;19969;-84
2021/12/11 01:08:44;;;;;;;;;;;;;;;6.14;100.00;98440.81;5094532;28;19924;-84
2021/12/11 01:11:15;;;;;;;;;;;;;;;5.96;100.00;98431.03;5076671;28;19924;-85
2021/12/11 01:13:52;;;;;;;;;;;;;;;6.02;100.00;98437.72;5061280;28;19924;-84
2021/12/11 01:16:21;;;;;;;;;;;;;;;6.07;100.00;98451.16;5094375;28;19985;-85
2021/12/11 01:18:50;;;;;;;;;;;;;;;6.19;100.00;98437.59;5094350;28;19924;-84
2021/12/11 01:24:45;;;;;;;;;;;;;;;6.07;100.00;98462.25;5079740;28;19925;-84
2021/12/11 01:27:14;;;;;;;;;;;;;;;6.11;100.00;98451.91;5073891;28;19925;-85
2021/12/11 01:29:43;;;;;;;;;;;;;;;6.21;100.00;98467.72;5090558;28;20361;-84
2021/12/11 01:32:11;;;;;;;;;;;;;;;6.32;100.00;98468.38;5057012;28;19932;-85
2021/12/11 01:34:38;;;;;;;;;;;;;;;6.12;100.00;98478.47;5090702;28;19946;-84
2021/12/11 01:37:06;;;;;;;;;;;;;;;6.26;100.00;98467.25;5074119;28;19993;-84
2021/12/11 01:39:36;;;;;;;;;;;;;;;6.44;100.00;98470.66;5073689;28;20024;-85
2021/12/11 01:42:08;;;;;;;;;;;;;;;6.47;100.00;98475.38;5090584;28;19924;-84
2021/12/11 01:44:36;;;;;;;;;;;;;;;6.62;100.00;98493.50;5090275;28;19924;-84
2021/12/11 01:47:06;;;;;;;;;;;;;;;6.48;100.00;98488.09;5073996;28;20011;-84
2021/12/11 01:49:34;;;;;;;;;;;;;;;6.53;100.00;98495.94;5090307;28;19956;-84
2021/12/11 01:52:06;;;;;;;;;;;;;;;6.49;100.00;98503.53;5073534;28;19924;-85
2021/12/11 01:54:36;;;;;;;;;;;;;;;6.62;100.00;98515.72;5090724;28;19925;-84
2021/12/11 01:57:09;;;;;;;;;;;;;;;6.43;100.00;98511.50;5073753;28;19925;-84
2021/12/11 01:59:38;;;;;;;;;;;;;;;6.32;100.00;98521.09;5090167;28;19932;-84
2021/12/11 02:02:05;;;;;;;;;;;;;;;6.41;100.00;98538.88;5073390;28;19931;-84
2021/12/11 02:04:34;;;;;;;;;;;;;;;6.43;100.00;98539.25;5073283;28;20336;-84
2021/12/11 02:07:10;;;;;;;;;;;;;;;6.40;100.00;98547.59;5073262;28;19939;-84
2021/12/11 02:09:39;;;;;;;;;;;;;;;6.64;100.00;98547.41;5074391;28;19924;-84
2021/12/11 02:12:06;;;;;;;;;;;;;;;6.59;100.00;98539.50;5056536;28;20286;-85
2021/12/11 02:14:39;;;;;;;;;;;;;;;6.51;100.00;98542.78;5073251;28;20352;-84
2021/12/11 02:17:13;;;;;;;;;;;;;;;6.93;100.00;98545.97;5073205;28;20058;-84
2021/12/11 02:19:43;;;;;;;;;;;;;;;6.85;100.00;98557.53;5073131;28;19924;-84
2021/12/11 02:22:12;;;;;;;;;;;;;;;6.96;100.00;98547.13;5089889;28;19925;-84
2021/12/11 02:24:45;;;;;;;;;;;;;;;6.71;100.00;98552.13;5072711;28;19925;-84
2021/12/11 02:27:16;;;;;;;;;;;;;;;6.62;100.00;98549.78;5073046;28;19928;-84
2021/12/11 02:29:47;;;;;;;;;;;;;;;6.60;100.00;98534.75;5072857;28;19925;-82
2021/12/11 02:32:32;;;;;;;;;;;;;;;6.59;100.00;98533.97;5088803;28;20005;-84
2021/12/11 02:35:08;;;;;;;;;;;;;;;6.65;100.00;98548.22;5039575;28;19935;-84
2021/12/11 02:37:56;;;;;;;;;;;;;;;6.58;100.00;98553.81;5089812;28;20382;-84
2021/12/11 02:40:44;;;;;;;;;;;;;;;6.36;100.00;98546.84;5072734;28;19925;-84
2021/12/11 02:43:18;;;;;;;;;;;;;;;6.41;100.00;98552.75;5089314;28;20429;-84
2021/12/11 02:45:53;;;;;;;;;;;;;;;6.39;100.00;98559.91;5072847;28;19924;-84
2021/12/11 02:48:26;;;;;;;;;;;;;;;6.21;100.00;98556.47;5089650;28;20011;-84
2021/12/11 02:51:09;;;;;;;;;;;;;;;6.16;100.00;98568.00;5089663;28;19925;-84
2021/12/11 02:53:40;;;;;;;;;;;;;;;6.17;100.00;98566.78;5074171;28;19931;-84
2021/12/11 02:56:23;;;;;;;;;;;;;;;6.16;100.00;98568.00;5056102;28;20286;-84
2021/12/11 02:58:52;;;;;;;;;;;;;;;6.29;100.00;98563.53;5089665;28;20101;-84
2021/12/11 03:01:25;;;;;;;;;;;;;;;6.29;100.00;98555.22;5073715;28;19960;-85
2021/12/11 03:04:00;;;;;;;;;;;;;;;6.24;100.00;98547.34;5089460;28;19932;-85
2021/12/11 03:06:36;;;;;;;;;;;;;;;6.26;100.00;98565.16;5072767;28;20019;-84
2021/12/11 03:09:04;;;;;;;;;;;;;;;6.33;100.00;98564.31;5072557;28;19924;-85
2021/12/11 03:11:32;;;;;;;;;;;;;;;6.21;100.00;98573.13;5072227;28;19924;-84
2021/12/11 03:14:03;;;;;;;;;;;;;;;6.26;100.00;98564.34;5055733;28;19924;-84
2021/12/11 03:16:32;;;;;;;;;;;;;;;6.36;100.00;98560.72;5072492;28;19931;-84
2021/12/11 03:19:03;;;;;;;;;;;;;;;6.45;100.00;98561.06;5088918;28;20378;-84
2021/12/11 03:21:31;;;;;;;;;;;;;;;6.45;100.00;98577.72;5073616;28;19924;-84
2021/12/11 03:23:58;;;;;;;;;;;;;;;6.43;100.00;98563.44;5088924;28;19946;-84
2021/12/11 03:26:26;;;;;;;;;;;;;;;6.49;100.00;98573.72;5088781;28;19966;-84
2021/12/11 03:28:53;;;;;;;;;;;;;;;6.70;100.00;98575.50;5088924;28;19924;-84
2021/12/11 03:31:20;;;;;;;;;;;;;;;6.68;100.00;98573.16;5072304;28;19931;-84
2021/12/11 03:33:53;;;;;;;;;;;;;;;6.68;100.00;98581.47;5072049;28;19924;-84
2021/12/11 03:36:21;;;;;;;;;;;;;;;6.90;100.00;98570.97;5072619;28;19924;-84
2021/12/11 03:38:50;;;;;;;;;;;;;;;6.95;100.00;98562.22;5072572;28;19970;-84
2021/12/11 03:41:19;;;;;;;;;;;;;;;7.01;100.00;98564.09;5072344;28;19924;-84
2021/12/11 03:43:46;;;;;;;;;;;;;;;7.15;100.00;98565.97;5074910;28;19932;-84
2021/12/11 03:46:13;;;;;;;;;;;;;;;7.45;100.00;98560.50;5077157;28;19928;-84
2021/12/11 03:48:46;;;;;;;;;;;;;;;7.14;100.00;98564.38;5092871;28;19982;-84
2021/12/11 03:51:15;;;;;;;;;;;;;;;7.52;100.00;98563.19;5077109;28;19925;-84
2021/12/11 03:53:42;;;;;;;;;;;;;;;7.19;100.00;98561.16;5075701;28;20018;-84
2021/12/11 03:56:13;;;;;;;;;;;;;;;7.33;100.00;98566.56;5075520;28;19925;-84
2021/12/11 03:58:40;;;;;;;;;;;;;;;7.44;100.00;98558.13;5075900;28;20023;-84
2021/12/11 04:01:10;;;;;;;;;;;;;;;7.16;100.00;98556.44;5075650;28;19924;-84
2021/12/11 04:03:40;;;;;;;;;;;;;;;7.08;100.00;98563.25;5075591;28;20023;-84
2021/12/11 04:06:09;;;;;;;;;;;;;;;7.27;100.00;98562.66;5092408;28;19925;-84
2021/12/11 04:08:40;;;;;;;;;;;;;;;7.24;100.00;98569.84;5058800;28;20325;-85
2021/12/11 04:11:10;;;;;;;;;;;;;;;7.25;100.00;98570.63;5075567;28;19928;-84
2021/12/11 04:13:38;;;;;;;;;;;;;;;7.43;100.00;98575.97;5092176;28;19924;-84
2021/12/11 04:16:06;;;;;;;;;;;;;;;7.87;100.00;98590.56;5092252;28;20011;-84
2021/12/11 04:18:33;;;;;;;;;;;;;;;7.57;100.00;98593.31;5075384;28;19924;-84
2021/12/11 04:21:00;;;;;;;;;;;;;;;7.18;100.00;98576.25;5058644;28;20441;-84
2021/12/11 04:23:27;;;;;;;;;;;;;;;7.25;100.00;98592.88;5075003;28;20420;-84
2021/12/11 04:25:56;;;;;;;;;;;;;;;7.34;100.00;98604.28;5075287;28;19924;-84
2021/12/11 04:28:29;;;;;;;;;;;;;;;7.53;100.00;98606.44;5091889;28;20511;-84
2021/12/11 04:31:05;;;;;;;;;;;;;;;7.47;100.00;98599.00;5074497;28;19997;-84
2021/12/11 04:33:46;;;;;;;;;;;;;;;7.55;100.00;98606.81;5074130;28;20556;-84
2021/12/11 04:36:18;;;;;;;;;;;;;;;7.49;100.00;98605.69;5075332;28;19924;-84
2021/12/11 04:38:46;;;;;;;;;;;;;;;7.26;100.00;98602.75;5091633;28;20409;-84
2021/12/11 04:41:18;;;;;;;;;;;;;;;7.31;100.00;98607.88;5076178;28;20393;-84
2021/12/11 04:43:47;;;;;;;;;;;;;;;7.36;100.00;98599.09;5075033;28;19925;-84
2021/12/11 04:46:14;;;;;;;;;;;;;;;7.15;100.00;98591.75;5074817;28;20383;-84
2021/12/11 04:48:57;;;;;;;;;;;;;;;7.21;100.00;98586.53;5058317;28;19924;-84
2021/12/11 04:51:35;;;;;;;;;;;;;;;7.10;100.00;98583.09;5075041;28;19925;-84
2021/12/11 05:04:35;;;;;;;;;;;;;;;6.51;100.00;98615.69;5074788;28;20095;-84
2021/12/11 05:09:41;;;;;;;;;;;;;;;7.15;100.00;98621.53;5074120;28;20398;-84
2021/12/11 05:14:53;;;;;;;;;;;;;;;7.16;100.00;98623.13;5074358;28;19932;-84
2021/12/11 05:17:22;;;;;;;;;;;;;;;7.26;100.00;98622.22;5090972;28;19974;-84
2021/12/11 05:19:52;;;;;;;;;;;;;;;7.35;100.00;98625.31;5075394;28;19925;-84
2021/12/11 05:22:20;;;;;;;;;;;;;;;7.19;100.00;98633.41;5073934;28;19935;-84
2021/12/11 05:24:49;;;;;;;;;;;;;;;7.02;100.00;98639.91;5075303;28;19924;-84
2021/12/11 05:27:16;;;;;;;;;;;;;;;7.38;100.00;98630.03;5090698;28;20375;-84
2021/12/11 05:29:44;;;;;;;;;;;;;;;7.51;100.00;98627.53;5090995;28;19957;-84
2021/12/11 05:32:14;;;;;;;;;;;;;;;7.21;100.00;98620.66;5073620;28;20371;-84
2021/12/11 05:34:42;;;;;;;;;;;;;;;7.43;100.00;98624.03;5090603;28;20062;-84
2021/12/11 05:37:10;;;;;;;;;;;;;;;7.09;100.00;98623.97;5074840;28;20295;-84
2021/12/11 05:39:38;;;;;;;;;;;;;;;7.34;100.00;98623.72;5074923;28;19925;-84
2021/12/11 05:42:06;;;;;;;;;;;;;;;7.33;100.00;98633.25;5090601;28;20390;-84
2021/12/11 05:44:34;;;;;;;;;;;;;;;6.86;100.00;98642.44;5090441;28;19930;-84
2021/12/11 05:47:02;;;;;;;;;;;;;;;7.17;100.00;98647.72;5073702;28;19931;-84
2021/12/11 05:49:30;;;;;;;;;;;;;;;7.19;100.00;98650.09;5090233;28;20409;-84
2021/12/11 05:51:57;;;;;;;;;;;;;;;7.00;100.00;98643.09;5073474;28;19924;-84
2021/12/11 05:54:26;;;;;;;;;;;;;;;7.38;100.00;98657.81;5073678;28;19970;-84
2021/12/11 05:56:56;;;;;;;;;;;;;;;7.67;100.00;98647.19;5090321;28;19974;-84
2021/12/11 05:59:24;;;;;;;;;;;;;;;7.33;100.00;98644.38;5073634;28;19925;-84
2021/12/11 06:01:57;;;;;;;;;;;;;;;7.41;100.00;98639.56;5073549;28;19931;-83
2021/12/11 06:04:27;;;;;;;;;;;;;;;6.95;100.00;98657.41;5090215;28;19962;-84
2021/12/11 06:06:54;;;;;;;;;;;;;;;6.83;100.00;98660.69;5089836;28;19971;-84
2021/12/11 06:09:23;;;;;;;;;;;;;;;7.29;100.00;98657.53;5074357;28;20392;-84
2021/12/11 06:11:52;;;;;;;;;;;;;;;7.14;100.00;98653.28;5056591;28;20311;-84
2021/12/11 06:14:20;;;;;;;;;;;;;;;7.62;100.00;98651.22;5073061;28;20354;-84
2021/12/11 06:16:48;;;;;;;;;;;;;;;7.35;100.00;98655.88;5073028;28;19939;-84
2021/12/11 06:19:19;;;;;;;;;;;;;;;7.89;100.00;98656.91;5073205;28;20386;-84
2021/12/11 06:21:47;;;;;;;;;;;;;;;8.15;100.00;98659.72;5072909;28;19931;-84
2021/12/11 06:24:14;;;;;;;;;;;;;;;7.78;100.00;98659.78;5073021;28;20019;-84
2021/12/11 06:26:41;;;;;;;;;;;;;;;7.09;100.00;98678.72;5072946;28;19925;-84
2021/12/11 06:29:08;;;;;;;;;;;;;;;7.73;100.00;98685.28;5073295;28;20337;-84
2021/12/11 06:31:36;;;;;;;;;;;;;;;8.04;100.00;98689.66;5088899;28;19928;-84
2021/12/11 06:34:05;;;;;;;;;;;;;;;8.19;100.00;98685.53;5072240;28;21523;-82
2021/12/11 06:36:33;;;;;;;;;;;;;;;8.08;100.00;98690.44;5072801;28;19924;-84
2021/12/11 06:39:04;;;;;;;;;;;;;;;8.24;100.00;98687.88;5072899;28;19935;-84
2021/12/11 06:41:36;;;;;;;;;;;;;;;8.55;100.00;98688.66;5089526;28;19932;-84
2021/12/11 06:44:04;;;;;;;;;;;;;;;8.54;100.00;98682.28;5073991;28;19924;-84
2021/12/11 06:46:31;;;;;;;;;;;;;;;8.39;100.00;98686.47;5056228;28;19924;-84
2021/12/11 06:48:58;;;;;;;;;;;;;;;8.31;100.00;98687.00;5073682;28;19960;-84
2021/12/11 06:51:26;;;;;;;;;;;;;;;8.50;100.00;98689.91;5072569;28;19925;-84
2021/12/11 06:53:58;;;;;;;;;;;;;;;7.97;100.00;98695.34;5072717;28;19924;-84
2021/12/11 06:56:26;;;;;;;;;;;;;;;7.45;100.00;98693.91;5072706;28;19931;-84
2021/12/11 06:58:54;;;;;;;;;;;;;;;7.46;100.00;98692.69;5072556;28;19924;-83
2021/12/11 07:01:23;;;;;;;;;;;;;;;7.25;100.00;98701.22;5072856;28;20023;-84
2021/12/11 07:03:50;;;;;;;;;;;;;;;7.54;100.00;98699.78;5072350;28;19982;-84
2021/12/11 07:06:18;;;;;;;;;;;;;;;7.71;100.00;98709.16;5089401;28;20013;-84
2021/12/11 07:08:47;;;;;;;;;;;;;;;7.96;100.00;98710.44;5072574;28;19924;-84
2021/12/11 07:11:15;;;;;;;;;;;;;;;8.29;100.00;98706.09;5073531;28;19924;-84
2021/12/11 07:13:43;;;;;;;;;;;;;;;7.81;100.00;98697.09;5073630;28;19924;-84
2021/12/11 07:16:13;;;;;;;;;;;;;;;7.41;100.00;98709.81;5072964;28;19970;-84
2021/12/11 07:18:40;;;;;;;;;;;;;;;7.47;100.00;98699.84;5074944;28;20018;-83
2021/12/11 07:21:08;;;;;;;;;;;;;;;7.00;100.00;98698.66;5076526;28;19970;-84
2021/12/11 07:23:36;;;;;;;;;;;;;;;7.48;100.00;98701.44;5093334;28;19964;-83
2021/12/11 07:26:17;;;;;;;;;;;;;;;7.72;100.00;98705.16;5076385;28;20375;-83
2021/12/11 07:28:46;;;;;;;;;;;;;;;7.83;100.00;98698.25;5093160;28;19925;-83
2021/12/11 07:31:14;;;;;;;;;;;;;;;8.25;100.00;98706.16;5076092;28;19968;-84
2021/12/11 07:33:41;;;;;;;;;;;;;;;8.34;100.00;98716.78;5092651;28;20393;-84
2021/12/11 07:36:09;;;;;;;;;;;;;;;8.40;100.00;98724.28;5075952;28;19925;-84
2021/12/11 07:38:36;;;;;;;;;;;;;;;8.44;100.00;98729.78;5042916;28;19932;-83
2021/12/11 07:41:06;;;;;;;;;;;;;;;8.47;100.00;98734.50;5076417;28;19924;-83
2021/12/11 07:43:34;;;;;;;;;;;;;;;8.40;100.00;98740.16;5077232;28;19931;-83
2021/12/11 07:46:02;;;;;;;;;;;;;;;8.06;100.00;98736.56;5076066;28;19924;-83
2021/12/11 07:48:29;;;;;;;;;;;;;;;8.33;100.00;98741.03;5076050;28;19924;-83
2021/12/11 07:50:57;;;;;;;;;;;;;;;8.26;100.00;98735.56;5076076;28;19925;-83
2021/12/11 07:53:25;;;;;;;;;;;;;;;8.25;100.00;98727.63;5075807;28;20271;-83
2021/12/11 07:55:52;;;;;;;;;;;;;;;8.36;100.00;98728.31;5092530;28;19924;-83
2021/12/11 07:58:20;;;;;;;;;;;;;;;8.25;100.00;98722.06;5075765;28;19990;-83
2021/12/11 08:00:48;;;;;;;;;;;;;;;8.50;100.00;98717.75;5091966;28;20428;-83
2021/12/11 08:03:16;;;;;;;;;;;;;;;8.53;100.00;98719.72;5079062;28;20359;-88
2021/12/11 08:05:44;;;;;;;;;;;;;;;8.41;100.00;98725.03;5062811;28;19924;-90
2021/12/11 08:08:11;;;;;;;;;;;;;;;8.42;100.00;98721.84;5078948;28;19928;-84
2021/12/11 08:10:40;;;;;;;;;;;;;;;8.24;100.00;98724.06;5078964;28;19924;-82
2021/12/11 08:13:08;;;;;;;;;;;;;;;8.37;100.00;98724.31;5093256;28;19924;-85
2021/12/11 08:15:36;;;;;;;;;;;;;;;8.46;100.00;98727.38;5092026;28;20291;-87
2021/12/11 08:18:06;;;;;;;;;;;;;;;8.28;100.00;98716.47;5058940;28;19925;-84
2021/12/11 08:20:34;;;;;;;;;;;;;;;8.41;100.00;98720.28;5092190;28;19947;-86
2021/12/11 08:23:02;;;;;;;;;;;;;;;8.15;100.00;98726.53;5092278;28;19997;-85
2021/12/11 08:29:00;;;;;;;;;;;;;;;8.21;100.00;98732.44;5066179;28;19925;-84
2021/12/11 08:31:28;;;;;;;;;;;;;;;8.41;100.00;98734.19;5074732;28;20011;-84
2021/12/11 08:33:55;;;;;;;;;;;;;;;8.43;100.00;98734.56;5075115;28;19924;-93
2021/12/11 08:36:23;;;;;;;;;;;;;;;8.44;100.00;98736.13;5058722;28;19925;-83
2021/12/11 08:38:51;;;;;;;;;;;;;;;8.36;100.00;98734.63;5067845;28;20021;-83
2021/12/11 08:41:22;;;;;;;;;;;;;;;8.54;100.00;98740.78;5077719;28;19974;-83
2021/12/11 08:43:58;;;;;;;;;;;;;;;8.67;100.00;98738.22;5074867;28;19924;-83
2021/12/11 08:46:27;;;;;;;;;;;;;;;8.70;100.00;98735.41;5074626;28;19932;-84
2021/12/11 08:48:58;;;;;;;;;;;;;;;8.60;100.00;98722.38;5080374;28;19974;-84
2021/12/11 08:51:31;;;;;;;;;;;;;;;8.20;100.00;98720.50;5078540;28;19924;-83
2021/12/11 08:53:59;;;;;;;;;;;;;;;8.32;100.00;98717.19;5095017;28;20298;-85
2021/12/11 08:56:27;;;;;;;;;;;;;;;8.74;100.00;98718.63;5095118;28;19930;-85
2021/12/11 08:58:56;;;;;;;;;;;;;;;8.92;100.00;98711.59;5076552;28;19923;-84
2021/12/11 09:01:24;;;;;;;;;;;;;;;9.07;100.00;98712.19;5085825;28;19928;-87
2021/12/11 09:04:00;;;;;;;;;;;;;;;9.05;100.00;98725.72;5075167;28;20425;-83
2021/12/11 09:06:28;;;;;;;;;;;;;;;9.05;100.00;98720.97;5090419;28;19932;-85
2021/12/11 09:08:58;;;;;;;;;;;;;;;9.04;100.00;98736.09;5090776;28;20382;-85
2021/12/11 09:11:38;;;;;;;;;;;;;;;8.86;100.00;98727.19;5083313;28;20390;-85
2021/12/11 09:14:18;;;;;;;;;;;;;;;8.93;100.00;98735.47;5105696;28;20432;-84
2021/12/11 09:16:54;;;;;;;;;;;;;;;8.84;100.00;98729.63;5084766;28;19925;-85
2021/12/11 09:19:34;;;;;;;;;;;;;;;9.10;100.00;98736.41;5063034;28;20398;-83
2021/12/11 09:22:13;;;;;;;;;;;;;;;9.08;100.00;98728.47;5078853;28;19981;-83
2021/12/11 09:24:41;;;;;;;;;;;;;;;9.07;100.00;98740.03;5090790;28;19990;-83
2021/12/11 09:27:12;;;;;;;;;;;;;;;9.16;100.00;98738.28;5074053;28;20379;-82
2021/12/11 09:29:48;;;;;;;;;;;;;;;9.36;100.00;98745.97;5073780;28;19924;-87
2021/12/11 09:32:17;;;;;;;;;;;;;;;9.03;100.00;98751.22;5075285;28;19939;-84
2021/12/11 09:34:47;;;;;;;;;;;;;;;9.31;100.00;98754.78;5074149;28;19931;-85
2021/12/11 09:37:15;;;;;;;;;;;;;;;9.24;100.00;98754.91;5090558;28;20378;-84
2021/12/11 09:39:48;;;;;;;;;;;;;;;9.47;100.00;98758.50;5089972;28;19925;-84
2021/12/11 09:42:15;;;;;;;;;;;;;;;9.54;100.00;98752.84;5107840;28;19930;-84
2021/12/11 09:44:46;;;;;;;;;;;;;;;9.69;100.00;98753.38;5088624;28;19928;-84
2021/12/11 09:47:18;;;;;;;;;;;;;;;9.73;100.00;98754.09;5092530;28;19924;-84
2021/12/11 09:49:52;;;;;;;;;;;;;;;9.86;100.00;98755.84;5093062;28;19928;-86
2021/12/11 09:52:23;;;;;;;;;;;;;;;9.60;100.00;98744.75;5094049;28;19931;-87
2021/12/11 09:54:53;;;;;;;;;;;;;;;9.72;100.00;98747.75;5077084;28;20379;-87
2021/12/11 09:57:22;;;;;;;;;;;;;;;9.80;100.00;98751.19;5077756;28;19924;-93
2021/12/11 09:59:51;;;;;;;;;;;;;;;9.75;100.00;98746.88;5077028;28;20559;-84
2021/12/11 10:02:20;;;;;;;;;;;;;;;9.81;100.00;98752.75;5094734;28;20367;-84
2021/12/11 10:04:58;;;;;;;;;;;;;;;9.76;100.00;98759.59;5076531;28;19931;-84
2021/12/11 10:07:30;;;;;;;;;;;;;;;9.73;100.00;98754.09;5093594;28;20291;-87
2021/12/11 10:10:00;;;;;;;;;;;;;;;9.84;100.00;98757.47;5095009;28;19924;-83
2021/12/11 10:12:30;;;;;;;;;;;;;;;9.77;100.00;98757.63;5076457;28;20302;-85
2021/12/11 10:15:00;;;;;;;;;;;;;;;9.79;100.00;98747.59;5076770;28;20011;-85
2021/12/11 10:17:40;;;;;;;;;;;;;;;9.85;100.00;98750.69;5093731;28;19924;-85
2021/12/11 10:20:10;;;;;;;;;;;;;;;9.51;100.00;98750.84;5093739;28;19924;-84
2021/12/11 10:22:38;;;;;;;;;;;;;;;9.16;100.00;98752.22;5076339;28;19924;-85
2021/12/11 10:25:10;;;;;;;;;;;;;;;9.29;100.00;98748.84;5076905;28;20030;-85
2021/12/11 10:27:37;;;;;;;;;;;;;;;9.25;100.00;98745.34;5093088;28;19930;-85
2021/12/11 10:30:07;;;;;;;;;;;;;;;9.21;100.00;98739.03;5093291;28;19924;-85
2021/12/11 10:32:34;;;;;;;;;;;;;;;9.11;100.00;98738.78;5075995;28;20022;-84
2021/12/11 10:35:05;;;;;;;;;;;;;;;9.18;100.00;98741.44;5077014;28;20394;-85
2021/12/11 10:37:36;;;;;;;;;;;;;;;8.82;100.00;98737.63;5093436;28;19931;-85
2021/12/11 10:40:07;;;;;;;;;;;;;;;8.73;100.00;98745.69;5076222;28;19982;-85
2021/12/11 10:42:34;;;;;;;;;;;;;;;8.54;100.00;98734.44;5076382;28;19977;-85
2021/12/11 10:45:05;;;;;;;;;;;;;;;8.57;100.00;98739.94;5093327;28;19928;-85
2021/12/11 10:47:34;;;;;;;;;;;;;;;8.53;100.00;98750.34;5092908;28;20368;-85
2021/12/11 10:50:18;;;;;;;;;;;;;;;8.66;100.00;98740.22;5093070;28;19931;-85
2021/12/11 10:52:45;;;;;;;;;;;;;;;8.89;100.00;98743.06;5092296;28;19924;-85
2021/12/11 10:55:14;;;;;;;;;;;;;;;9.19;100.00;98754.16;5076274;28;19969;-86
2021/12/11 10:57:41;;;;;;;;;;;;;;;9.09;100.00;98754.31;5059229;28;19928;-86
2021/12/11 11:00:16;;;;;;;;;;;;;;;9.19;100.00;98754.16;5076355;28;19925;-86
2021/12/11 11:02:44;;;;;;;;;;;;;;;9.39;100.00;98750.69;5092796;28;19924;-86
2021/12/11 11:05:14;;;;;;;;;;;;;;;9.18;100.00;98755.38;5059268;28;19930;-86
2021/12/11 11:07:43;;;;;;;;;;;;;;;9.49;100.00;98760.88;5093015;28;19927;-86
2021/12/11 11:10:16;;;;;;;;;;;;;;;9.46;100.00;98756.94;5076002;28;19959;-87
2021/12/11 11:12:44;;;;;;;;;;;;;;;9.63;100.00;98752.28;5075796;28;20489;-87
2021/12/11 11:15:12;;;;;;;;;;;;;;;9.57;100.00;98740.03;5076192;28;19973;-87
2021/12/11 11:17:39;;;;;;;;;;;;;;;9.26;100.00;98735.75;5075818;28;19931;-87
2021/12/11 11:20:09;;;;;;;;;;;;;;;9.34;100.00;98740.00;5076249;28;19924;-86
2021/12/11 11:22:37;;;;;;;;;;;;;;;9.38;100.00;98737.94;5092529;28;19924;-86
2021/12/11 11:25:11;;;;;;;;;;;;;;;9.77;100.00;98730.47;5058942;28;20361;-86
2021/12/11 11:27:38;;;;;;;;;;;;;;;9.75;100.00;98726.56;5075825;28;19924;-86
2021/12/11 11:30:07;;;;;;;;;;;;;;;9.78;100.00;98723.72;5092619;28;19928;-86
2021/12/11 11:32:34;;;;;;;;;;;;;;;9.37;100.00;98711.28;5075534;28;19934;-86
2021/12/11 11:35:09;;;;;;;;;;;;;;;9.40;100.00;98716.00;5059226;28;19924;-85
2021/12/11 11:37:45;;;;;;;;;;;;;;;9.69;100.00;98717.09;5092863;28;19924;-86
2021/12/11 11:40:14;;;;;;;;;;;;;;;9.73;100.00;98701.06;5092201;28;19928;-86
2021/12/11 11:42:42;;;;;;;;;;;;;;;9.74;100.00;98702.66;5109258;28;19924;-86
2021/12/11 11:45:12;;;;;;;;;;;;;;;9.81;100.00;98694.97;5058853;28;19969;-86
2021/12/11 11:47:41;;;;;;;;;;;;;;;10.06;100.00;98686.09;5092552;28;20271;-85
2021/12/11 11:50:11;;;;;;;;;;;;;;;9.70;100.00;98694.34;5092464;28;19924;-86
2021/12/11 11:52:41;;;;;;;;;;;;;;;9.62;100.00;98692.91;5091909;28;20290;-84
2021/12/11 11:55:11;;;;;;;;;;;;;;;9.84;100.00;98688.53;5092356;28;19925;-84
2021/12/11 11:57:40;;;;;;;;;;;;;;;9.88;100.00;98683.66;5092551;28;20308;-84
2021/12/11 12:00:14;;;;;;;;;;;;;;;9.74;100.00;98688.72;5092065;28;19956;-86
2021/12/11 12:02:41;;;;;;;;;;;;;;;9.49;100.00;98678.00;5092380;28;19931;-86
2021/12/11 12:05:08;;;;;;;;;;;;;;;9.62;100.00;98675.41;5078225;28;19963;-86
2021/12/11 12:07:36;;;;;;;;;;;;;;;8.82;100.00;98664.38;5095750;28;20015;-86
2021/12/11 12:10:14;;;;;;;;;;;;;;;8.97;100.00;98671.31;5079074;28;20374;-86
2021/12/11 12:12:43;;;;;;;;;;;;;;;9.13;100.00;98652.72;5079029;28;19924;-86
2021/12/11 12:15:12;;;;;;;;;;;;;;;8.93;100.00;98673.38;5097271;28;19969;-86
2021/12/11 12:17:40;;;;;;;;;;;;;;;9.40;100.00;98663.81;5095775;28;19930;-85
2021/12/11 12:20:12;;;;;;;;;;;;;;;9.05;100.00;98656.88;5079063;28;19924;-85
2021/12/11 12:22:40;;;;;;;;;;;;;;;9.35;100.00;98646.78;5095093;28;19928;-86
2021/12/11 12:25:08;;;;;;;;;;;;;;;9.26;100.00;98652.91;5095723;28;20463;-86
2021/12/11 12:27:37;;;;;;;;;;;;;;;9.33;100.00;98652.00;5078674;28;19928;-86
2021/12/11 12:30:16;;;;;;;;;;;;;;;9.29;100.00;98654.84;5095442;28;20417;-86
2021/12/11 12:32:43;;;;;;;;;;;;;;;9.08;100.00;98653.22;5095081;28;20383;-86
2021/12/11 12:35:12;;;;;;;;;;;;;;;9.15;100.00;98661.47;5078592;28;19928;-85
2021/12/11 12:37:39;;;;;;;;;;;;;;;8.67;100.00;98657.47;5078648;28;19924;-86
2021/12/11 12:40:10;;;;;;;;;;;;;;;9.16;100.00;98654.66;5078580;28;19924;-86
2021/12/11 12:42:50;;;;;;;;;;;;;;;9.44;100.00;98667.34;5096682;28;19931;-85
2021/12/11 12:45:22;;;;;;;;;;;;;;;9.50;100.00;98648.09;5095248;28;19924;-86
2021/12/11 12:47:56;;;;;;;;;;;;;;;9.56;100.00;98649.97;5078469;28;19946;-86
2021/12/11 12:50:29;;;;;;;;;;;;;;;9.40;100.00;98646.31;5061619;28;19935;-85
2021/12/11 12:52:57;;;;;;;;;;;;;;;9.71;100.00;98648.50;5094791;28;19924;-86
2021/12/11 12:55:29;;;;;;;;;;;;;;;9.33;100.00;98646.44;5094927;28;20322;-85
2021/12/11 12:57:58;;;;;;;;;;;;;;;9.23;100.00;98648.19;5078505;28;19924;-85
2021/12/11 13:00:31;;;;;;;;;;;;;;;9.40;100.00;98657.47;5077892;28;19991;-85
2021/12/11 13:03:10;;;;;;;;;;;;;;;9.69;100.00;98648.16;5094909;28;19946;-85
2021/12/11 13:05:43;;;;;;;;;;;;;;;9.46;100.00;98648.19;5094349;28;19931;-86
2021/12/11 13:08:16;;;;;;;;;;;;;;;9.67;100.00;98642.22;5094834;28;19924;-85
2021/12/11 13:10:45;;;;;;;;;;;;;;;9.31;100.00;98648.84;5077798;28;20302;-85
2021/12/11 13:13:13;;;;;;;;;;;;;;;9.13;100.00;98647.16;5077628;28;20437;-85
2021/12/11 13:15:53;;;;;;;;;;;;;;;9.61;100.00;98635.56;5077281;28;19924;-86
2021/12/11 13:18:22;;;;;;;;;;;;;;;9.96;100.00;98645.22;5078153;28;19924;-86
2021/12/11 13:20:49;;;;;;;;;;;;;;;10.07;100.00;98638.22;5077623;28;19924;-86
2021/12/11 13:23:17;;;;;;;;;;;;;;;9.82;100.00;98637.13;5077588;28;20556;-84
2021/12/11 13:25:48;;;;;;;;;;;;;;;9.38;100.00;98632.00;5077436;28;19924;-85